sensor_id;sensor_type;location;lat;lon;timestamp;P1;durP1;ratioP1;P2;durP2;ratioP2
1537;SDS011;12022;52.266;10.522;2022-08-19T00:00:10;2.03;;;2.03;;
1537;SDS011;12022;52.266;10.522;2022-08-19T00:02:40;2.93;;;2.93;;
1537;SDS011;12022;52.266;10.522;2022-08-19T00:05:16;2.30;;;2.30;;
1537;SDS011;12022;52.266;10.522;2022-08-19T00:07:44;3.87;;;3.87;;
1537;SDS011;12022;52.266;10.522;2022-08-19T00:10:13;2.40;;;2.40;;
1537;SDS011;12022;52.266;10.522;2022-08-19T00:12:42;2.47;;;2.47;;
1537;SDS011;12022;52.266;10.522;2022-08-19T00:15:16;3.43;;;3.43;;
1537;SDS011;12022;52.266;10.522;2022-08-19T00:17:44;2.87;;;2.87;;
1537;SDS011;12022;52.266;10.522;2022-08-19T00:20:13;3.70;;;3.70;;
1537;SDS011;12022;52.266;10.522;2022-08-19T00:22:44;2.80;;;2.80;;
1537;SDS011;12022;52.266;10.522;2022-08-19T00:25:12;2.00;;;2.00;;
1537;SDS011;12022;52.266;10.522;2022-08-19T00:27:41;1.87;;;1.87;;
1537;SDS011;12022;52.266;10.522;2022-08-19T00:30:08;2.13;;;2.13;;
1537;SDS011;12022;52.266;10.522;2022-08-19T00:32:37;1.87;;;1.87;;
1537;SDS011;12022;52.266;10.522;2022-08-19T00:35:04;1.77;;;1.77;;
1537;SDS011;12022;52.266;10.522;2022-08-19T00:37:32;1.80;;;1.80;;
1537;SDS011;12022;52.266;10.522;2022-08-19T00:40:01;1.77;;;1.77;;
1537;SDS011;12022;52.266;10.522;2022-08-19T00:42:29;2.13;;;2.13;;
1537;SDS011;12022;52.266;10.522;2022-08-19T00:44:56;1.97;;;1.97;;
1537;SDS011;12022;52.266;10.522;2022-08-19T00:47:23;1.87;;;1.87;;
1537;SDS011;12022;52.266;10.522;2022-08-19T00:49:52;1.93;;;1.93;;
1537;SDS011;12022;52.266;10.522;2022-08-19T00:52:23;3.03;;;3.03;;
1537;SDS011;12022;52.266;10.522;2022-08-19T00:54:58;2.87;;;2.87;;
1537;SDS011;12022;52.266;10.522;2022-08-19T00:57:32;1.73;;;1.73;;
1537;SDS011;12022;52.266;10.522;2022-08-19T01:00:05;1.63;;;1.63;;
1537;SDS011;12022;52.266;10.522;2022-08-19T01:02:37;1.50;;;1.50;;
1537;SDS011;12022;52.266;10.522;2022-08-19T01:05:06;2.17;;;2.17;;
1537;SDS011;12022;52.266;10.522;2022-08-19T01:07:37;2.00;;;2.00;;
1537;SDS011;12022;52.266;10.522;2022-08-19T01:10:07;2.00;;;2.00;;
1537;SDS011;12022;52.266;10.522;2022-08-19T01:12:39;4.73;;;4.67;;
1537;SDS011;12022;52.266;10.522;2022-08-19T01:15:07;1.80;;;1.80;;
1537;SDS011;12022;52.266;10.522;2022-08-19T01:17:38;1.50;;;1.50;;
1537;SDS011;12022;52.266;10.522;2022-08-19T01:20:07;1.53;;;1.53;;
1537;SDS011;12022;52.266;10.522;2022-08-19T01:25:10;2.10;;;2.10;;
1537;SDS011;12022;52.266;10.522;2022-08-19T01:27:42;2.03;;;2.03;;
1537;SDS011;12022;52.266;10.522;2022-08-19T01:30:16;1.77;;;1.77;;
1537;SDS011;12022;52.266;10.522;2022-08-19T01:32:46;1.50;;;1.50;;
1537;SDS011;12022;52.266;10.522;2022-08-19T01:35:13;2.00;;;2.00;;
1537;SDS011;12022;52.266;10.522;2022-08-19T01:37:51;1.67;;;1.67;;
1537;SDS011;12022;52.266;10.522;2022-08-19T01:40:21;1.87;;;1.87;;
1537;SDS011;12022;52.266;10.522;2022-08-19T01:42:51;1.03;;;1.03;;
1537;SDS011;12022;52.266;10.522;2022-08-19T01:45:20;1.27;;;1.27;;
1537;SDS011;12022;52.266;10.522;2022-08-19T01:47:49;1.47;;;1.47;;
1537;SDS011;12022;52.266;10.522;2022-08-19T01:50:28;2.80;;;2.80;;
1537;SDS011;12022;52.266;10.522;2022-08-19T01:52:57;1.87;;;1.87;;
1537;SDS011;12022;52.266;10.522;2022-08-19T01:55:32;2.37;;;2.37;;
1537;SDS011;12022;52.266;10.522;2022-08-19T01:58:08;2.07;;;2.07;;
1537;SDS011;12022;52.266;10.522;2022-08-19T02:00:40;2.17;;;2.17;;
1537;SDS011;12022;52.266;10.522;2022-08-19T02:03:08;1.90;;;1.90;;
1537;SDS011;12022;52.266;10.522;2022-08-19T02:05:37;2.50;;;2.50;;
1537;SDS011;12022;52.266;10.522;2022-08-19T02:08:05;1.73;;;1.73;;
1537;SDS011;12022;52.266;10.522;2022-08-19T02:10:33;1.37;;;1.37;;
1537;SDS011;12022;52.266;10.522;2022-08-19T02:13:00;1.70;;;1.70;;
1537;SDS011;12022;52.266;10.522;2022-08-19T02:15:27;2.53;;;2.53;;
1537;SDS011;12022;52.266;10.522;2022-08-19T02:17:54;2.00;;;2.00;;
1537;SDS011;12022;52.266;10.522;2022-08-19T02:20:39;1.70;;;1.70;;
1537;SDS011;12022;52.266;10.522;2022-08-19T02:23:09;2.10;;;2.10;;
1537;SDS011;12022;52.266;10.522;2022-08-19T02:25:41;2.13;;;2.13;;
1537;SDS011;12022;52.266;10.522;2022-08-19T02:28:10;2.07;;;2.07;;
1537;SDS011;12022;52.266;10.522;2022-08-19T02:30:43;1.67;;;1.67;;
1537;SDS011;12022;52.266;10.522;2022-08-19T02:33:10;2.00;;;2.00;;
1537;SDS011;12022;52.266;10.522;2022-08-19T02:35:37;2.03;;;2.03;;
1537;SDS011;12022;52.266;10.522;2022-08-19T02:38:08;2.53;;;2.53;;
1537;SDS011;12022;52.266;10.522;2022-08-19T02:40:57;1.83;;;1.83;;
1537;SDS011;12022;52.266;10.522;2022-08-19T02:43:26;1.70;;;1.70;;
1537;SDS011;12022;52.266;10.522;2022-08-19T02:45:59;1.70;;;1.70;;
1537;SDS011;12022;52.266;10.522;2022-08-19T02:48:26;1.40;;;1.40;;
1537;SDS011;12022;52.266;10.522;2022-08-19T02:50:53;2.37;;;2.37;;
1537;SDS011;12022;52.266;10.522;2022-08-19T02:53:24;1.67;;;1.67;;
1537;SDS011;12022;52.266;10.522;2022-08-19T02:55:54;1.70;;;1.70;;
1537;SDS011;12022;52.266;10.522;2022-08-19T02:58:22;2.80;;;2.80;;
1537;SDS011;12022;52.266;10.522;2022-08-19T03:00:54;1.97;;;1.97;;
1537;SDS011;12022;52.266;10.522;2022-08-19T03:03:22;1.30;;;1.30;;
1537;SDS011;12022;52.266;10.522;2022-08-19T03:05:49;1.23;;;1.23;;
1537;SDS011;12022;52.266;10.522;2022-08-19T03:08:23;1.83;;;1.83;;
1537;SDS011;12022;52.266;10.522;2022-08-19T03:10:50;1.60;;;1.60;;
1537;SDS011;12022;52.266;10.522;2022-08-19T03:13:19;1.20;;;1.20;;
1537;SDS011;12022;52.266;10.522;2022-08-19T03:15:47;1.30;;;1.30;;
1537;SDS011;12022;52.266;10.522;2022-08-19T03:18:14;1.47;;;1.47;;
1537;SDS011;12022;52.266;10.522;2022-08-19T03:20:44;1.70;;;1.70;;
1537;SDS011;12022;52.266;10.522;2022-08-19T03:23:13;1.47;;;1.47;;
1537;SDS011;12022;52.266;10.522;2022-08-19T03:25:43;2.23;;;2.23;;
1537;SDS011;12022;52.266;10.522;2022-08-19T03:28:23;2.10;;;2.10;;
1537;SDS011;12022;52.266;10.522;2022-08-19T03:30:57;1.97;;;1.97;;
1537;SDS011;12022;52.266;10.522;2022-08-19T03:33:27;1.57;;;1.57;;
1537;SDS011;12022;52.266;10.522;2022-08-19T03:38:33;2.50;;;2.50;;
1537;SDS011;12022;52.266;10.522;2022-08-19T03:41:03;2.57;;;2.57;;
1537;SDS011;12022;52.266;10.522;2022-08-19T03:43:35;2.23;;;2.23;;
1537;SDS011;12022;52.266;10.522;2022-08-19T03:46:10;1.70;;;1.70;;
1537;SDS011;12022;52.266;10.522;2022-08-19T03:48:39;2.03;;;2.03;;
1537;SDS011;12022;52.266;10.522;2022-08-19T03:51:07;2.20;;;2.20;;
1537;SDS011;12022;52.266;10.522;2022-08-19T03:53:56;2.20;;;2.20;;
1537;SDS011;12022;52.266;10.522;2022-08-19T03:56:26;1.90;;;1.90;;
1537;SDS011;12022;52.266;10.522;2022-08-19T03:58:54;2.80;;;2.80;;
1537;SDS011;12022;52.266;10.522;2022-08-19T04:01:24;2.97;;;2.97;;
1537;SDS011;12022;52.266;10.522;2022-08-19T04:04:00;2.80;;;2.80;;
1537;SDS011;12022;52.266;10.522;2022-08-19T04:06:31;1.70;;;1.70;;
1537;SDS011;12022;52.266;10.522;2022-08-19T04:09:05;1.90;;;1.90;;
1537;SDS011;12022;52.266;10.522;2022-08-19T04:11:35;1.93;;;1.93;;
1537;SDS011;12022;52.266;10.522;2022-08-19T04:14:11;2.17;;;2.17;;
1537;SDS011;12022;52.266;10.522;2022-08-19T04:16:40;2.37;;;2.37;;
1537;SDS011;12022;52.266;10.522;2022-08-19T04:19:10;1.73;;;1.73;;
1537;SDS011;12022;52.266;10.522;2022-08-19T04:21:38;2.40;;;2.40;;
1537;SDS011;12022;52.266;10.522;2022-08-19T04:24:05;1.70;;;1.70;;
1537;SDS011;12022;52.266;10.522;2022-08-19T04:26:34;1.20;;;1.20;;
1537;SDS011;12022;52.266;10.522;2022-08-19T04:29:07;1.07;;;1.07;;
1537;SDS011;12022;52.266;10.522;2022-08-19T04:31:39;1.50;;;1.50;;
1537;SDS011;12022;52.266;10.522;2022-08-19T04:34:07;1.53;;;1.53;;
1537;SDS011;12022;52.266;10.522;2022-08-19T04:36:39;1.90;;;1.90;;
1537;SDS011;12022;52.266;10.522;2022-08-19T04:39:10;2.07;;;2.07;;
1537;SDS011;12022;52.266;10.522;2022-08-19T04:41:39;1.50;;;1.50;;
1537;SDS011;12022;52.266;10.522;2022-08-19T04:44:24;1.00;;;1.00;;
1537;SDS011;12022;52.266;10.522;2022-08-19T04:46:51;1.70;;;1.70;;
1537;SDS011;12022;52.266;10.522;2022-08-19T04:49:20;1.00;;;1.00;;
1537;SDS011;12022;52.266;10.522;2022-08-19T04:51:51;1.33;;;1.33;;
1537;SDS011;12022;52.266;10.522;2022-08-19T04:54:20;2.10;;;2.10;;
1537;SDS011;12022;52.266;10.522;2022-08-19T04:57:03;2.70;;;2.70;;
1537;SDS011;12022;52.266;10.522;2022-08-19T04:59:33;2.67;;;2.67;;
1537;SDS011;12022;52.266;10.522;2022-08-19T05:02:01;2.63;;;2.63;;
1537;SDS011;12022;52.266;10.522;2022-08-19T05:04:28;2.83;;;2.83;;
1537;SDS011;12022;52.266;10.522;2022-08-19T05:06:58;3.00;;;3.00;;
1537;SDS011;12022;52.266;10.522;2022-08-19T05:09:27;2.50;;;2.50;;
1537;SDS011;12022;52.266;10.522;2022-08-19T05:12:15;2.83;;;2.83;;
1537;SDS011;12022;52.266;10.522;2022-08-19T05:14:42;3.37;;;3.37;;
1537;SDS011;12022;52.266;10.522;2022-08-19T05:17:11;2.73;;;2.73;;
1537;SDS011;12022;52.266;10.522;2022-08-19T05:19:57;2.77;;;2.77;;
1537;SDS011;12022;52.266;10.522;2022-08-19T05:22:44;3.60;;;3.60;;
1537;SDS011;12022;52.266;10.522;2022-08-19T05:25:14;2.30;;;2.30;;
1537;SDS011;12022;52.266;10.522;2022-08-19T05:27:45;2.03;;;2.03;;
1537;SDS011;12022;52.266;10.522;2022-08-19T05:30:12;1.97;;;1.97;;
1537;SDS011;12022;52.266;10.522;2022-08-19T05:32:39;1.80;;;1.80;;
1537;SDS011;12022;52.266;10.522;2022-08-19T05:35:08;2.97;;;2.97;;
1537;SDS011;12022;52.266;10.522;2022-08-19T05:37:35;1.63;;;1.63;;
1537;SDS011;12022;52.266;10.522;2022-08-19T05:40:03;3.70;;;3.70;;
1537;SDS011;12022;52.266;10.522;2022-08-19T05:42:30;3.40;;;3.40;;
1537;SDS011;12022;52.266;10.522;2022-08-19T05:44:57;2.33;;;2.33;;
1537;SDS011;12022;52.266;10.522;2022-08-19T05:47:24;2.53;;;2.53;;
1537;SDS011;12022;52.266;10.522;2022-08-19T05:49:51;1.90;;;1.90;;
1537;SDS011;12022;52.266;10.522;2022-08-19T05:52:18;2.60;;;2.60;;
1537;SDS011;12022;52.266;10.522;2022-08-19T05:54:52;2.80;;;2.80;;
1537;SDS011;12022;52.266;10.522;2022-08-19T05:57:22;3.20;;;3.20;;
1537;SDS011;12022;52.266;10.522;2022-08-19T05:59:50;2.70;;;2.70;;
1537;SDS011;12022;52.266;10.522;2022-08-19T06:02:24;2.83;;;2.83;;
1537;SDS011;12022;52.266;10.522;2022-08-19T06:05:02;2.30;;;2.30;;
1537;SDS011;12022;52.266;10.522;2022-08-19T06:07:30;2.97;;;2.97;;
1537;SDS011;12022;52.266;10.522;2022-08-19T06:09:57;2.63;;;2.63;;
1537;SDS011;12022;52.266;10.522;2022-08-19T06:12:27;2.20;;;2.20;;
1537;SDS011;12022;52.266;10.522;2022-08-19T06:14:58;3.53;;;3.53;;
1537;SDS011;12022;52.266;10.522;2022-08-19T06:17:28;2.33;;;2.33;;
1537;SDS011;12022;52.266;10.522;2022-08-19T06:19:57;3.17;;;3.17;;
1537;SDS011;12022;52.266;10.522;2022-08-19T06:22:24;4.90;;;4.83;;
1537;SDS011;12022;52.266;10.522;2022-08-19T06:24:51;2.50;;;2.50;;
1537;SDS011;12022;52.266;10.522;2022-08-19T06:27:20;2.77;;;2.77;;
1537;SDS011;12022;52.266;10.522;2022-08-19T06:29:47;3.87;;;3.87;;
1537;SDS011;12022;52.266;10.522;2022-08-19T06:32:15;2.40;;;2.40;;
1537;SDS011;12022;52.266;10.522;2022-08-19T06:34:43;3.40;;;3.40;;
1537;SDS011;12022;52.266;10.522;2022-08-19T06:37:10;3.40;;;3.40;;
1537;SDS011;12022;52.266;10.522;2022-08-19T06:39:39;3.87;;;3.87;;
1537;SDS011;12022;52.266;10.522;2022-08-19T06:42:10;3.07;;;3.07;;
1537;SDS011;12022;52.266;10.522;2022-08-19T06:44:40;2.70;;;2.70;;
1537;SDS011;12022;52.266;10.522;2022-08-19T06:47:15;2.37;;;2.37;;
1537;SDS011;12022;52.266;10.522;2022-08-19T06:49:52;2.13;;;2.13;;
1537;SDS011;12022;52.266;10.522;2022-08-19T06:52:26;3.03;;;3.03;;
1537;SDS011;12022;52.266;10.522;2022-08-19T06:54:54;3.20;;;3.20;;
1537;SDS011;12022;52.266;10.522;2022-08-19T06:57:25;2.90;;;2.90;;
1537;SDS011;12022;52.266;10.522;2022-08-19T06:59:53;2.80;;;2.80;;
1537;SDS011;12022;52.266;10.522;2022-08-19T07:02:22;2.20;;;2.20;;
1537;SDS011;12022;52.266;10.522;2022-08-19T07:04:52;2.70;;;2.70;;
1537;SDS011;12022;52.266;10.522;2022-08-19T07:07:20;2.63;;;2.63;;
1537;SDS011;12022;52.266;10.522;2022-08-19T07:09:49;2.23;;;2.23;;
1537;SDS011;12022;52.266;10.522;2022-08-19T07:12:25;2.17;;;2.17;;
1537;SDS011;12022;52.266;10.522;2022-08-19T07:14:55;2.33;;;2.33;;
1537;SDS011;12022;52.266;10.522;2022-08-19T07:17:23;2.83;;;2.83;;
1537;SDS011;12022;52.266;10.522;2022-08-19T07:19:51;3.07;;;3.07;;
1537;SDS011;12022;52.266;10.522;2022-08-19T07:22:20;2.43;;;2.43;;
1537;SDS011;12022;52.266;10.522;2022-08-19T07:24:50;2.60;;;2.60;;
1537;SDS011;12022;52.266;10.522;2022-08-19T07:27:19;3.20;;;3.20;;
1537;SDS011;12022;52.266;10.522;2022-08-19T07:29:51;1.70;;;1.70;;
1537;SDS011;12022;52.266;10.522;2022-08-19T07:32:25;2.13;;;2.13;;
1537;SDS011;12022;52.266;10.522;2022-08-19T07:34:58;1.90;;;1.90;;
1537;SDS011;12022;52.266;10.522;2022-08-19T07:37:26;1.70;;;1.70;;
1537;SDS011;12022;52.266;10.522;2022-08-19T07:39:59;1.43;;;1.43;;
1537;SDS011;12022;52.266;10.522;2022-08-19T07:42:27;1.10;;;1.10;;
1537;SDS011;12022;52.266;10.522;2022-08-19T07:44:56;1.47;;;1.47;;
1537;SDS011;12022;52.266;10.522;2022-08-19T07:47:24;1.53;;;1.53;;
1537;SDS011;12022;52.266;10.522;2022-08-19T07:50:13;1.30;;;1.30;;
1537;SDS011;12022;52.266;10.522;2022-08-19T07:52:41;1.90;;;1.90;;
1537;SDS011;12022;52.266;10.522;2022-08-19T07:55:14;1.27;;;1.27;;
1537;SDS011;12022;52.266;10.522;2022-08-19T07:58:01;1.37;;;1.37;;
1537;SDS011;12022;52.266;10.522;2022-08-19T08:00:30;1.40;;;1.40;;
1537;SDS011;12022;52.266;10.522;2022-08-19T08:02:57;1.30;;;1.30;;
1537;SDS011;12022;52.266;10.522;2022-08-19T08:05:24;1.07;;;1.07;;
1537;SDS011;12022;52.266;10.522;2022-08-19T08:08:12;1.70;;;1.70;;
1537;SDS011;12022;52.266;10.522;2022-08-19T08:10:58;0.90;;;0.90;;
1537;SDS011;12022;52.266;10.522;2022-08-19T08:13:25;2.00;;;2.00;;
1537;SDS011;12022;52.266;10.522;2022-08-19T08:15:54;1.27;;;1.27;;
1537;SDS011;12022;52.266;10.522;2022-08-19T08:18:22;1.70;;;1.70;;
1537;SDS011;12022;52.266;10.522;2022-08-19T08:20:56;1.47;;;1.47;;
1537;SDS011;12022;52.266;10.522;2022-08-19T08:23:23;1.37;;;1.37;;
1537;SDS011;12022;52.266;10.522;2022-08-19T08:25:53;1.83;;;1.83;;
1537;SDS011;12022;52.266;10.522;2022-08-19T08:28:23;1.30;;;1.30;;
1537;SDS011;12022;52.266;10.522;2022-08-19T08:30:55;1.77;;;1.77;;
1537;SDS011;12022;52.266;10.522;2022-08-19T08:33:24;1.53;;;1.53;;
1537;SDS011;12022;52.266;10.522;2022-08-19T08:35:59;2.20;;;2.20;;
1537;SDS011;12022;52.266;10.522;2022-08-19T08:38:33;2.73;;;2.73;;
1537;SDS011;12022;52.266;10.522;2022-08-19T08:41:21;2.10;;;2.10;;
1537;SDS011;12022;52.266;10.522;2022-08-19T08:43:55;2.50;;;2.50;;
1537;SDS011;12022;52.266;10.522;2022-08-19T08:51:59;2.80;;;2.80;;
1537;SDS011;12022;52.266;10.522;2022-08-19T08:54:36;4.30;;;4.30;;
1537;SDS011;12022;52.266;10.522;2022-08-19T08:57:29;5.40;;;5.30;;
1537;SDS011;12022;52.266;10.522;2022-08-19T09:00:15;2.77;;;2.77;;
1537;SDS011;12022;52.266;10.522;2022-08-19T09:02:46;2.83;;;2.83;;
1537;SDS011;12022;52.266;10.522;2022-08-19T09:05:16;3.20;;;3.20;;
1537;SDS011;12022;52.266;10.522;2022-08-19T09:10:39;2.60;;;2.60;;
1537;SDS011;12022;52.266;10.522;2022-08-19T09:15:51;4.20;;;4.20;;
1537;SDS011;12022;52.266;10.522;2022-08-19T09:18:24;2.90;;;2.90;;
1537;SDS011;12022;52.266;10.522;2022-08-19T09:20:55;2.90;;;2.90;;
1537;SDS011;12022;52.266;10.522;2022-08-19T09:23:22;3.50;;;3.50;;
1537;SDS011;12022;52.266;10.522;2022-08-19T09:25:52;4.00;;;4.00;;
1537;SDS011;12022;52.266;10.522;2022-08-19T09:28:20;3.23;;;3.23;;
1537;SDS011;12022;52.266;10.522;2022-08-19T09:30:52;2.50;;;2.50;;
1537;SDS011;12022;52.266;10.522;2022-08-19T09:33:19;2.23;;;2.23;;
1537;SDS011;12022;52.266;10.522;2022-08-19T09:35:46;2.53;;;2.53;;
1537;SDS011;12022;52.266;10.522;2022-08-19T09:38:18;2.33;;;2.33;;
1537;SDS011;12022;52.266;10.522;2022-08-19T09:40:46;3.10;;;3.10;;
1537;SDS011;12022;52.266;10.522;2022-08-19T09:43:13;3.20;;;3.20;;
1537;SDS011;12022;52.266;10.522;2022-08-19T09:45:58;3.80;;;3.80;;
1537;SDS011;12022;52.266;10.522;2022-08-19T09:48:26;4.30;;;4.30;;
1537;SDS011;12022;52.266;10.522;2022-08-19T09:50:53;2.47;;;2.47;;
1537;SDS011;12022;52.266;10.522;2022-08-19T09:53:20;2.47;;;2.47;;
1537;SDS011;12022;52.266;10.522;2022-08-19T09:55:50;2.83;;;2.83;;
1537;SDS011;12022;52.266;10.522;2022-08-19T09:58:18;3.07;;;3.07;;
1537;SDS011;12022;52.266;10.522;2022-08-19T10:00:50;3.30;;;3.30;;
1537;SDS011;12022;52.266;10.522;2022-08-19T10:03:17;2.80;;;2.80;;
1537;SDS011;12022;52.266;10.522;2022-08-19T10:05:43;2.87;;;2.87;;
1537;SDS011;12022;52.266;10.522;2022-08-19T10:08:31;3.57;;;3.57;;
1537;SDS011;12022;52.266;10.522;2022-08-19T10:11:00;3.57;;;3.57;;
1537;SDS011;12022;52.266;10.522;2022-08-19T10:13:48;2.10;;;2.10;;
1537;SDS011;12022;52.266;10.522;2022-08-19T10:16:17;4.10;;;4.10;;
1537;SDS011;12022;52.266;10.522;2022-08-19T10:18:51;5.17;;;5.07;;
1537;SDS011;12022;52.266;10.522;2022-08-19T10:21:28;4.37;;;4.37;;
1537;SDS011;12022;52.266;10.522;2022-08-19T10:23:58;3.40;;;3.40;;
1537;SDS011;12022;52.266;10.522;2022-08-19T10:26:31;4.60;;;4.53;;
1537;SDS011;12022;52.266;10.522;2022-08-19T10:29:03;2.60;;;2.60;;
1537;SDS011;12022;52.266;10.522;2022-08-19T10:31:34;3.77;;;3.77;;
1537;SDS011;12022;52.266;10.522;2022-08-19T10:34:21;2.20;;;2.20;;
1537;SDS011;12022;52.266;10.522;2022-08-19T10:36:53;3.33;;;3.33;;
1537;SDS011;12022;52.266;10.522;2022-08-19T10:39:27;4.30;;;4.30;;
1537;SDS011;12022;52.266;10.522;2022-08-19T10:42:08;4.57;;;4.50;;
1537;SDS011;12022;52.266;10.522;2022-08-19T10:44:37;5.27;;;5.17;;
1537;SDS011;12022;52.266;10.522;2022-08-19T10:47:04;3.80;;;3.80;;
1537;SDS011;12022;52.266;10.522;2022-08-19T10:49:50;3.33;;;3.33;;
1537;SDS011;12022;52.266;10.522;2022-08-19T10:52:38;3.57;;;3.57;;
1537;SDS011;12022;52.266;10.522;2022-08-19T10:55:18;4.27;;;4.27;;
1537;SDS011;12022;52.266;10.522;2022-08-19T10:58:16;4.50;;;4.47;;
1537;SDS011;12022;52.266;10.522;2022-08-19T11:00:56;4.87;;;4.77;;
1537;SDS011;12022;52.266;10.522;2022-08-19T11:03:25;5.10;;;5.00;;
1537;SDS011;12022;52.266;10.522;2022-08-19T11:06:00;3.30;;;3.30;;
1537;SDS011;12022;52.266;10.522;2022-08-19T11:08:29;4.33;;;4.33;;
1537;SDS011;12022;52.266;10.522;2022-08-19T11:10:58;3.33;;;3.33;;
1537;SDS011;12022;52.266;10.522;2022-08-19T11:13:27;5.20;;;5.10;;
1537;SDS011;12022;52.266;10.522;2022-08-19T11:15:58;4.87;;;4.77;;
1537;SDS011;12022;52.266;10.522;2022-08-19T11:18:34;3.10;;;3.10;;
1537;SDS011;12022;52.266;10.522;2022-08-19T11:21:09;3.60;;;3.60;;
1537;SDS011;12022;52.266;10.522;2022-08-19T11:23:49;2.70;;;2.70;;
1537;SDS011;12022;52.266;10.522;2022-08-19T11:26:18;2.83;;;2.83;;
1537;SDS011;12022;52.266;10.522;2022-08-19T11:28:46;2.93;;;2.93;;
1537;SDS011;12022;52.266;10.522;2022-08-19T11:31:14;2.67;;;2.67;;
1537;SDS011;12022;52.266;10.522;2022-08-19T11:33:48;2.70;;;2.70;;
1537;SDS011;12022;52.266;10.522;2022-08-19T11:36:20;2.67;;;2.67;;
1537;SDS011;12022;52.266;10.522;2022-08-19T11:38:49;2.20;;;2.20;;
1537;SDS011;12022;52.266;10.522;2022-08-19T11:41:17;1.53;;;1.53;;
1537;SDS011;12022;52.266;10.522;2022-08-19T11:43:46;3.10;;;3.10;;
1537;SDS011;12022;52.266;10.522;2022-08-19T11:46:14;1.70;;;1.70;;
1537;SDS011;12022;52.266;10.522;2022-08-19T11:48:42;2.87;;;2.87;;
1537;SDS011;12022;52.266;10.522;2022-08-19T11:51:10;2.70;;;2.70;;
1537;SDS011;12022;52.266;10.522;2022-08-19T11:53:40;2.13;;;2.13;;
1537;SDS011;12022;52.266;10.522;2022-08-19T11:56:08;2.10;;;2.10;;
1537;SDS011;12022;52.266;10.522;2022-08-19T11:58:35;2.50;;;2.50;;
1537;SDS011;12022;52.266;10.522;2022-08-19T12:01:07;3.20;;;3.20;;
1537;SDS011;12022;52.266;10.522;2022-08-19T12:03:35;2.80;;;2.80;;
1537;SDS011;12022;52.266;10.522;2022-08-19T12:06:05;3.20;;;3.20;;
1537;SDS011;12022;52.266;10.522;2022-08-19T12:08:33;4.63;;;4.53;;
1537;SDS011;12022;52.266;10.522;2022-08-19T12:11:00;5.90;;;5.80;;
1537;SDS011;12022;52.266;10.522;2022-08-19T12:13:28;4.97;;;4.87;;
1537;SDS011;12022;52.266;10.522;2022-08-19T12:15:56;4.67;;;4.57;;
1537;SDS011;12022;52.266;10.522;2022-08-19T12:18:24;4.73;;;4.63;;
1537;SDS011;12022;52.266;10.522;2022-08-19T12:20:52;4.70;;;4.60;;
1537;SDS011;12022;52.266;10.522;2022-08-19T12:23:20;3.67;;;3.67;;
1537;SDS011;12022;52.266;10.522;2022-08-19T12:25:48;5.80;;;5.70;;
1537;SDS011;12022;52.266;10.522;2022-08-19T12:28:23;5.13;;;5.03;;
1537;SDS011;12022;52.266;10.522;2022-08-19T12:30:51;4.03;;;4.03;;
1537;SDS011;12022;52.266;10.522;2022-08-19T12:33:18;3.70;;;3.70;;
1537;SDS011;12022;52.266;10.522;2022-08-19T12:35:49;3.57;;;3.57;;
1537;SDS011;12022;52.266;10.522;2022-08-19T12:38:17;3.20;;;3.20;;
1537;SDS011;12022;52.266;10.522;2022-08-19T12:40:47;3.30;;;3.30;;
1537;SDS011;12022;52.266;10.522;2022-08-19T12:43:15;3.30;;;3.30;;
1537;SDS011;12022;52.266;10.522;2022-08-19T12:45:42;4.90;;;4.80;;
1537;SDS011;12022;52.266;10.522;2022-08-19T12:48:12;3.97;;;3.97;;
1537;SDS011;12022;52.266;10.522;2022-08-19T12:51:00;2.87;;;2.87;;
1537;SDS011;12022;52.266;10.522;2022-08-19T12:53:32;3.67;;;3.67;;
1537;SDS011;12022;52.266;10.522;2022-08-19T12:56:04;3.13;;;3.13;;
1537;SDS011;12022;52.266;10.522;2022-08-19T12:58:37;3.37;;;3.37;;
1537;SDS011;12022;52.266;10.522;2022-08-19T13:01:06;2.97;;;2.97;;
1537;SDS011;12022;52.266;10.522;2022-08-19T13:03:37;3.07;;;3.07;;
1537;SDS011;12022;52.266;10.522;2022-08-19T13:06:06;2.43;;;2.43;;
1537;SDS011;12022;52.266;10.522;2022-08-19T13:08:34;2.00;;;2.00;;
1537;SDS011;12022;52.266;10.522;2022-08-19T13:13:37;4.37;;;4.37;;
1537;SDS011;12022;52.266;10.522;2022-08-19T13:16:08;3.43;;;3.43;;
1537;SDS011;12022;52.266;10.522;2022-08-19T13:18:37;3.03;;;3.03;;
1537;SDS011;12022;52.266;10.522;2022-08-19T13:21:06;4.07;;;4.07;;
1537;SDS011;12022;52.266;10.522;2022-08-19T13:23:35;3.00;;;3.00;;
1537;SDS011;12022;52.266;10.522;2022-08-19T13:26:04;4.27;;;4.27;;
1537;SDS011;12022;52.266;10.522;2022-08-19T13:28:32;3.47;;;3.47;;
1537;SDS011;12022;52.266;10.522;2022-08-19T13:31:20;4.93;;;4.83;;
1537;SDS011;12022;52.266;10.522;2022-08-19T13:34:07;5.77;;;5.67;;
1537;SDS011;12022;52.266;10.522;2022-08-19T13:36:35;3.83;;;3.83;;
1537;SDS011;12022;52.266;10.522;2022-08-19T13:39:04;3.30;;;3.30;;
1537;SDS011;12022;52.266;10.522;2022-08-19T13:41:32;5.00;;;4.90;;
1537;SDS011;12022;52.266;10.522;2022-08-19T13:44:00;6.43;;;6.33;;
1537;SDS011;12022;52.266;10.522;2022-08-19T13:46:28;3.80;;;3.80;;
1537;SDS011;12022;52.266;10.522;2022-08-19T13:48:55;4.27;;;4.27;;
1537;SDS011;12022;52.266;10.522;2022-08-19T13:51:23;5.33;;;5.23;;
1537;SDS011;12022;52.266;10.522;2022-08-19T13:53:50;4.20;;;4.20;;
1537;SDS011;12022;52.266;10.522;2022-08-19T13:56:18;5.17;;;5.07;;
1537;SDS011;12022;52.266;10.522;2022-08-19T13:58:52;3.63;;;3.53;;
1537;SDS011;12022;52.266;10.522;2022-08-19T14:01:23;4.03;;;4.03;;
1537;SDS011;12022;52.266;10.522;2022-08-19T14:03:50;2.60;;;2.60;;
1537;SDS011;12022;52.266;10.522;2022-08-19T14:06:19;2.13;;;2.13;;
1537;SDS011;12022;52.266;10.522;2022-08-19T14:08:47;1.93;;;1.93;;
1537;SDS011;12022;52.266;10.522;2022-08-19T14:11:14;1.30;;;1.30;;
1537;SDS011;12022;52.266;10.522;2022-08-19T14:13:42;2.60;;;2.60;;
1537;SDS011;12022;52.266;10.522;2022-08-19T14:16:10;3.17;;;3.17;;
1537;SDS011;12022;52.266;10.522;2022-08-19T14:18:39;1.73;;;1.73;;
1537;SDS011;12022;52.266;10.522;2022-08-19T14:21:07;2.57;;;2.57;;
1537;SDS011;12022;52.266;10.522;2022-08-19T14:23:34;3.07;;;3.07;;
1537;SDS011;12022;52.266;10.522;2022-08-19T14:26:09;2.70;;;2.70;;
1537;SDS011;12022;52.266;10.522;2022-08-19T14:28:38;3.33;;;3.33;;
1537;SDS011;12022;52.266;10.522;2022-08-19T14:31:12;5.63;;;5.53;;
1537;SDS011;12022;52.266;10.522;2022-08-19T14:33:42;3.37;;;3.37;;
1537;SDS011;12022;52.266;10.522;2022-08-19T14:36:09;5.20;;;5.10;;
1537;SDS011;12022;52.266;10.522;2022-08-19T14:38:36;4.17;;;4.17;;
1537;SDS011;12022;52.266;10.522;2022-08-19T14:41:10;3.23;;;3.23;;
1537;SDS011;12022;52.266;10.522;2022-08-19T14:43:47;5.03;;;4.93;;
1537;SDS011;12022;52.266;10.522;2022-08-19T14:46:17;4.70;;;4.60;;
1537;SDS011;12022;52.266;10.522;2022-08-19T14:48:48;4.40;;;4.40;;
1537;SDS011;12022;52.266;10.522;2022-08-19T14:51:18;8.80;;;8.70;;
1537;SDS011;12022;52.266;10.522;2022-08-19T14:53:46;3.30;;;3.30;;
1537;SDS011;12022;52.266;10.522;2022-08-19T14:56:18;4.40;;;4.40;;
1537;SDS011;12022;52.266;10.522;2022-08-19T14:58:47;4.73;;;4.63;;
1537;SDS011;12022;52.266;10.522;2022-08-19T15:01:18;5.00;;;4.90;;
1537;SDS011;12022;52.266;10.522;2022-08-19T15:03:47;4.30;;;4.30;;
1537;SDS011;12022;52.266;10.522;2022-08-19T15:06:14;4.07;;;4.07;;
1537;SDS011;12022;52.266;10.522;2022-08-19T15:08:42;5.13;;;5.03;;
1537;SDS011;12022;52.266;10.522;2022-08-19T15:11:16;4.30;;;4.30;;
1537;SDS011;12022;52.266;10.522;2022-08-19T15:13:47;4.80;;;4.70;;
1537;SDS011;12022;52.266;10.522;2022-08-19T15:16:14;7.93;;;7.83;;
1537;SDS011;12022;52.266;10.522;2022-08-19T15:18:44;9.30;;;9.20;;
1537;SDS011;12022;52.266;10.522;2022-08-19T15:21:13;8.73;;;8.63;;
1537;SDS011;12022;52.266;10.522;2022-08-19T15:23:52;6.07;;;5.97;;
1537;SDS011;12022;52.266;10.522;2022-08-19T15:26:19;6.60;;;6.50;;
1537;SDS011;12022;52.266;10.522;2022-08-19T15:28:47;4.63;;;4.53;;